EDT,Max TemperatureF,Mean TemperatureF,Min TemperatureF,Max Dew PointF,MeanDew PointF,Min DewpointF,Max Humidity, Mean Humidity, Min Humidity, Max Sea Level PressureIn, Mean Sea Level PressureIn, Min Sea Level PressureIn, Max VisibilityMiles, Mean VisibilityMiles, Min VisibilityMiles, Max Wind SpeedMPH, Mean Wind SpeedMPH, Max Gust SpeedMPH,PrecipitationIn, CloudCover, Events, WindDirDegrees
2013-7-1,77,72,67,70,68,66,97,90,82,30.02,29.97,29.92,10,6,2,13,4,15,0.59,8,Fog-Rain,5
2013-7-2,87,77,66,73,68,64,97,81,65,30.12,30.08,30.02,10,7,2,21,7,28,T,7,Fog-Rain-Thunderstorm,181
2013-7-3,87,81,74,72,71,70,87,74,61,30.19,30.15,30.11,10,10,10,14,9,20,0.00,6,,171
2013-7-4,91,82,73,73,71,70,87,71,55,30.21,30.15,30.08,10,10,10,17,7,83,T,3,Fog-Rain,174
2013-7-5,90,82,73,75,72,70,87,72,56,30.16,30.11,30.02,10,10,10,16,5,20,0.13,4,,175
2013-7-6,87,80,72,70,68,65,87,67,46,30.11,30.08,30.02,10,10,10,16,4,21,T,5,Fog,318
2013-7-7,91,81,70,75,71,66,90,75,59,30.05,29.97,29.91,10,9,1,15,3,18,0.94,6,Rain-Thunderstorm,157
2013-7-8,85,78,71,70,68,65,87,69,51,30.04,29.99,29.94,10,9,1,16,5,20,1.40,6,Rain-Thunderstorm,265
2013-7-9,87,79,70,70,68,65,100,76,51,30.08,30.04,29.97,10,7,0,12,3,17,T,7,Fog-Rain,157
2013-7-10,84,78,72,74,71,68,94,82,69,29.98,29.85,29.77,10,7,0,20,7,29,0.85,6,Rain-Thunderstorm,177
2013-7-11,83,75,67,72,62,58,93,70,46,30.00,29.88,29.77,10,10,7,18,7,25,T,5,,299
2013-7-12,83,74,64,65,61,58,84,68,51,30.17,30.09,29.99,10,10,10,13,6,17,0.00,6,,4
2013-7-13,80,74,67,71,65,59,87,78,68,30.29,30.25,30.19,10,10,10,8,2,10,T,7,Rain,331
2013-7-14,90,81,71,71,70,68,93,73,52,30.33,30.28,30.22,10,9,4,13,2,24,0.00,4,Fog,248
2013-7-15,91,82,73,70,68,63,87,67,47,30.25,30.20,30.14,10,10,10,17,7,22,0.00,4,,305
2013-7-16,92,81,70,71,68,64,84,66,47,30.23,30.19,30.14,10,10,10,13,3,18,0.00,2,,9
2013-7-17,94,83,71,74,69,67,93,67,41,30.22,30.13,30.02,10,10,7,13,4,17,0.00,3,Fog,258
2013-7-18,94,86,77,74,71,67,85,65,44,30.04,30.00,29.94,10,10,10,18,6,24,0.00,4,,284
2013-7-19,96,85,74,73,69,63,87,64,41,29.94,29.83,29.72,10,10,10,24,10,38,T,4,,221
2013-7-20,87,78,68,68,65,59,74,63,51,29.85,29.76,29.71,10,10,10,23,6,30,0.01,6,Rain,260
2013-7-21,85,74,62,64,61,58,90,68,46,29.99,29.94,29.87,10,10,10,14,3,20,0.00,6,,332
2013-7-22,87,75,63,70,62,54,93,67,40,30.01,29.93,29.83,10,10,6,21,5,29,0.09,7,Rain,56
2013-7-23,83,77,70,71,69,65,97,78,58,29.81,29.66,29.56,10,7,2,14,5,17,0.92,7,Rain,19
2013-7-24,76,67,57,67,57,48,90,68,46,30.03,29.78,29.61,10,10,10,23,10,31,T,5,Rain,302
2013-7-25,73,63,53,55,50,47,77,62,46,30.12,30.08,30.04,10,10,10,14,7,20,0.00,4,,4
2013-7-26,77,69,60,59,55,52,78,64,50,30.09,30.05,30.00,10,10,10,13,5,21,0.00,5,,12
2013-7-27,83,70,57,62,58,53,100,69,37,30.06,30.01,29.94,10,7,0,15,5,23,0.00,5,Fog,159
2013-7-28,74,71,67,69,65,60,93,81,68,29.98,29.95,29.93,10,8,1,15,7,25,0.46,8,Rain-Thunderstorm,171
2013-7-29,81,72,62,66,59,53,90,66,42,30.12,30.02,29.96,10,9,5,15,5,25,0.00,4,,264
2013-7-30,80,68,55,58,55,53,86,64,42,30.18,30.13,30.09,10,10,10,16,5,21,0.00,4,,272
2013-7-31,81,69,56,59,56,54,87,66,45,30.17,30.10,30.02,10,10,10,10,3,16,0.00,4,,180